createdAt,value
2022-09-03T00:01:53.320Z,16.37
2022-09-03T00:07:00.294Z,16.34
2022-09-03T00:12:14.529Z,16.27
2022-09-03T00:17:27.327Z,16.32
2022-09-03T00:22:46.842Z,16.02
2022-09-03T00:27:47.403Z,15.82
2022-09-03T00:33:05.636Z,15.55
2022-09-03T00:38:01.971Z,15.36
2022-09-03T00:43:08.385Z,15.20
2022-09-03T00:48:17.758Z,14.60
2022-09-03T00:53:34.289Z,14.25
2022-09-03T00:58:44.400Z,13.98
2022-09-03T01:03:58.666Z,13.68
2022-09-03T01:09:00.742Z,13.58
2022-09-03T01:14:15.842Z,13.50
2022-09-03T01:19:40.444Z,13.45
2022-09-03T01:25:07.894Z,13.37
2022-09-03T01:30:09.118Z,13.34
2022-09-03T01:35:19.221Z,13.29
2022-09-03T01:40:35.694Z,13.24
2022-09-03T01:45:36.915Z,13.12
2022-09-03T01:50:46.221Z,12.92
2022-09-03T01:56:01.313Z,12.86
2022-09-03T02:01:03.189Z,12.75
2022-09-03T02:06:00.512Z,12.76
2022-09-03T02:11:02.016Z,12.76
2022-09-03T02:16:03.498Z,12.69
2022-09-03T02:21:01.081Z,12.53
2022-09-03T02:25:59.630Z,12.41
2022-09-03T02:30:57.066Z,12.36
2022-09-03T02:35:55.205Z,12.31
2022-09-03T02:40:52.076Z,12.18
2022-09-03T02:45:53.794Z,12.17
2022-09-03T02:50:50.229Z,12.07
2022-09-03T02:55:46.622Z,12.06
2022-09-03T03:00:43.173Z,12.04
2022-09-03T03:05:46.746Z,11.98
2022-09-03T03:10:46.471Z,11.94
2022-09-03T03:15:44.201Z,12.02
2022-09-03T03:20:42.318Z,12.08
2022-09-03T03:25:39.837Z,11.99
2022-09-03T03:30:40.275Z,12.09
2022-09-03T03:35:37.317Z,12.08
2022-09-03T03:40:34.719Z,12.10
2022-09-03T03:45:31.034Z,12.01
2022-09-03T03:50:28.017Z,11.99
2022-09-03T03:55:24.407Z,11.85
2022-09-03T04:00:24.721Z,11.84
2022-09-03T04:05:23.230Z,11.90
2022-09-03T04:10:20.455Z,11.81
2022-09-03T04:15:16.908Z,11.77
2022-09-03T04:20:13.451Z,11.75
2022-09-03T04:25:09.868Z,11.75
2022-09-03T04:30:06.879Z,11.62
2022-09-03T04:35:03.978Z,11.54
2022-09-03T04:40:00.529Z,11.55
2022-09-03T04:44:56.879Z,11.61
2022-09-03T04:49:55.036Z,11.66
2022-09-03T04:54:51.493Z,11.65
2022-09-03T04:59:47.818Z,11.66
2022-09-03T05:04:44.172Z,11.77
2022-09-03T05:09:40.465Z,11.85
2022-09-03T05:14:36.875Z,11.83
2022-09-03T05:19:34.350Z,11.94
2022-09-03T05:24:30.671Z,12.04
2022-09-03T05:29:27.093Z,12.33
2022-09-03T05:34:24.135Z,13.07
2022-09-03T05:39:20.490Z,13.66
2022-09-03T05:44:16.832Z,13.99
2022-09-03T05:49:13.133Z,14.37
2022-09-03T05:54:10.816Z,14.37
2022-09-03T05:59:09.285Z,14.35
2022-09-03T06:04:11.466Z,14.23
2022-09-03T06:09:10.783Z,14.31
2022-09-03T06:14:08.950Z,14.41
2022-09-03T06:19:09.526Z,14.49
2022-09-03T06:24:06.033Z,14.56
2022-09-03T06:29:02.368Z,14.79
2022-09-03T06:34:03.358Z,15.07
2022-09-03T06:39:01.006Z,14.98
2022-09-03T06:44:03.096Z,15.06
2022-09-03T06:48:59.476Z,15.24
2022-09-03T06:54:04.332Z,15.65
2022-09-03T06:59:05.654Z,15.79
2022-09-03T07:04:04.299Z,15.98
2022-09-03T07:09:00.770Z,16.45
2022-09-03T07:13:58.599Z,16.83
2022-09-03T07:18:56.099Z,17.33
2022-09-03T07:23:54.088Z,17.91
2022-09-03T07:28:50.963Z,18.29
2022-09-03T07:33:47.346Z,18.90
2022-09-03T07:38:45.011Z,19.32
2022-09-03T07:43:47.078Z,19.79
2022-09-03T07:48:43.921Z,20.07
2022-09-03T07:53:40.360Z,20.24
2022-09-03T07:58:38.087Z,20.24
2022-09-03T08:03:38.721Z,20.22
2022-09-03T08:08:36.910Z,20.34
2022-09-03T08:13:34.531Z,20.49
2022-09-03T08:18:31.964Z,20.88
2022-09-03T08:23:29.221Z,21.20
2022-09-03T08:28:26.150Z,21.22
2022-09-03T08:33:37.022Z,21.20
2022-09-03T08:38:35.152Z,21.25
2022-09-03T08:43:40.808Z,21.53
2022-09-03T08:48:37.321Z,21.77
2022-09-03T08:53:48.958Z,21.79
2022-09-03T08:58:45.446Z,22.05
2022-09-03T09:04:06.878Z,22.25
2022-09-03T09:09:30.426Z,22.44
2022-09-03T09:14:30.740Z,22.09
2022-09-03T09:19:49.910Z,22.17
2022-09-03T09:24:48.197Z,22.33
2022-09-03T09:29:48.607Z,22.55
2022-09-03T09:34:49.957Z,22.55
2022-09-03T09:39:57.719Z,22.97
2022-09-03T09:44:54.232Z,22.98
2022-09-03T09:49:57.521Z,23.28
2022-09-03T09:55:08.145Z,23.00
2022-09-03T10:00:14.802Z,23.21
2022-09-03T10:05:24.540Z,23.59
2022-09-03T10:10:21.658Z,23.58
2022-09-03T10:15:33.002Z,23.67
2022-09-03T10:20:37.221Z,23.86
2022-09-03T10:26:12.203Z,23.96
2022-09-03T10:31:21.526Z,24.08
2022-09-03T10:36:26.833Z,24.38
2022-09-03T10:41:48.886Z,24.50
2022-09-03T10:47:01.208Z,24.32
2022-09-03T10:52:09.068Z,24.68
2022-09-03T10:57:25.208Z,24.11
2022-09-03T11:02:41.303Z,24.36
2022-09-03T11:07:43.736Z,24.39
2022-09-03T11:13:01.029Z,24.69
2022-09-03T11:18:09.542Z,24.97
2022-09-03T11:23:10.057Z,24.75
2022-09-03T11:28:36.233Z,24.17
2022-09-03T11:33:39.787Z,24.10
2022-09-03T11:38:37.418Z,24.18
2022-09-03T11:43:34.275Z,24.52
2022-09-03T11:48:45.739Z,24.90
2022-09-03T11:53:42.125Z,24.37
2022-09-03T11:58:42.897Z,24.49
2022-09-03T12:03:44.663Z,25.15
2022-09-03T12:08:51.419Z,25.61
2022-09-03T12:14:13.907Z,26.07
2022-09-03T12:19:22.171Z,26.40
2022-09-03T12:24:20.216Z,25.97
2022-09-03T12:29:27.513Z,26.11
2022-09-03T12:34:26.435Z,25.65
2022-09-03T12:44:42.124Z,25.51
2022-09-03T12:49:49.855Z,25.56
2022-09-03T12:54:56.649Z,25.52
2022-09-03T12:59:56.537Z,25.22
2022-09-03T13:04:53.961Z,25.01
2022-09-03T13:09:50.949Z,24.93
2022-09-03T13:14:48.032Z,25.02
2022-09-03T13:20:02.650Z,24.97
2022-09-03T13:25:22.563Z,24.85
2022-09-03T13:30:31.080Z,24.88
2022-09-03T13:35:30.424Z,24.60
2022-09-03T13:41:18.661Z,24.40
2022-09-03T13:46:32.814Z,24.38
2022-09-03T13:51:40.052Z,24.33
2022-09-03T13:57:01.021Z,24.48
2022-09-03T14:02:20.636Z,24.61
2022-09-03T14:07:35.170Z,24.69
2022-09-03T14:12:34.241Z,24.63
2022-09-03T14:17:52.240Z,24.55
2022-09-03T14:23:20.972Z,24.71
2022-09-03T14:28:46.535Z,24.98
2022-09-03T14:34:00.517Z,25.10
2022-09-03T14:39:20.899Z,25.52
2022-09-03T14:45:12.555Z,25.84
2022-09-03T14:50:19.944Z,25.78
2022-09-03T14:55:51.511Z,25.52
2022-09-03T15:01:00.476Z,25.54
2022-09-03T15:06:21.175Z,25.47
2022-09-03T15:11:32.677Z,25.23
2022-09-03T15:16:43.332Z,25.39
2022-09-03T15:22:08.412Z,25.39
2022-09-03T15:27:48.466Z,25.17
2022-09-03T15:32:51.278Z,24.89
2022-09-03T15:37:54.657Z,24.80
2022-09-03T15:42:58.329Z,24.79
2022-09-03T15:48:13.791Z,24.90
2022-09-03T15:53:34.079Z,25.52
2022-09-03T15:58:41.084Z,25.80
2022-09-03T16:03:59.559Z,25.11
2022-09-03T16:09:02.108Z,24.49
2022-09-03T16:14:01.689Z,24.72
2022-09-03T16:19:13.100Z,25.02
2022-09-03T16:24:26.696Z,25.14
2022-09-03T16:29:28.640Z,25.26
2022-09-03T16:34:33.265Z,25.49
2022-09-03T16:39:38.792Z,25.87
2022-09-03T16:44:59.907Z,27.72
2022-09-03T16:50:40.666Z,30.80
2022-09-03T16:55:58.373Z,31.42
2022-09-03T17:01:13.464Z,32.99
2022-09-03T17:06:30.692Z,27.70
2022-09-03T17:11:59.420Z,25.17
2022-09-03T17:17:18.257Z,25.67
2022-09-03T17:22:38.919Z,27.17
2022-09-03T17:28:00.476Z,27.05
2022-09-03T17:33:29.194Z,25.55
2022-09-03T17:39:04.132Z,23.67
2022-09-03T17:44:21.677Z,22.71
2022-09-03T17:49:29.421Z,22.14
2022-09-03T17:54:37.728Z,21.83
2022-09-03T17:59:46.174Z,21.59
2022-09-03T18:04:52.392Z,21.38
2022-09-03T18:10:19.212Z,21.30
2022-09-03T18:15:25.517Z,21.03
2022-09-03T18:20:42.774Z,20.99
2022-09-03T18:25:59.647Z,20.92
2022-09-03T18:31:14.562Z,20.86
2022-09-03T18:36:31.716Z,20.68
2022-09-03T18:41:52.984Z,20.52
2022-09-03T18:53:14.216Z,20.07
2022-09-03T18:59:06.571Z,19.91
2022-09-03T19:04:34.046Z,19.72
2022-09-03T19:10:07.193Z,19.47
2022-09-03T19:15:33.644Z,19.23
2022-09-03T19:20:50.763Z,18.99
2022-09-03T19:26:06.350Z,18.77
2022-09-03T19:31:52.104Z,18.63
2022-09-03T19:37:13.541Z,18.43
2022-09-03T19:42:43.311Z,18.16
2022-09-03T19:48:09.602Z,17.96
2022-09-03T19:53:36.087Z,17.70
2022-09-03T19:58:54.520Z,17.48
2022-09-03T20:04:10.582Z,17.18
2022-09-03T20:09:28.693Z,16.95
2022-09-03T20:14:25.102Z,16.77
2022-09-03T20:19:48.652Z,16.49
2022-09-03T20:24:58.806Z,16.44
2022-09-03T20:30:09.404Z,16.39
2022-09-03T20:35:30.746Z,16.33
2022-09-03T20:40:46.758Z,16.24
2022-09-03T20:46:00.923Z,16.10
2022-09-03T20:51:13.073Z,15.82
2022-09-03T20:56:27.112Z,15.65
2022-09-03T21:01:56.250Z,15.68
2022-09-03T21:07:02.596Z,15.63
2022-09-03T21:12:32.337Z,15.54
2022-09-03T21:17:59.675Z,15.87
2022-09-03T21:23:01.320Z,16.01
2022-09-03T21:28:06.804Z,16.52
2022-09-03T21:33:10.301Z,16.85
2022-09-03T21:38:13.806Z,16.94
2022-09-03T21:43:19.283Z,16.94
2022-09-03T21:48:38.969Z,17.10
2022-09-03T21:54:14.384Z,17.19
2022-09-03T21:59:41.352Z,16.95
2022-09-03T22:04:38.549Z,16.74
2022-09-03T22:09:50.441Z,16.69
2022-09-03T22:14:51.623Z,16.52
2022-09-03T22:19:47.984Z,16.46
2022-09-03T22:24:55.156Z,16.31
2022-09-03T22:29:58.541Z,16.26
2022-09-03T22:35:06.452Z,16.14
2022-09-03T22:40:10.950Z,16.07
2022-09-03T22:45:20.307Z,16.25
2022-09-03T22:50:26.887Z,16.29
2022-09-03T22:55:25.613Z,16.39
2022-09-03T23:00:22.017Z,16.40
2022-09-03T23:05:32.530Z,16.42
2022-09-03T23:10:32.870Z,16.40
2022-09-03T23:15:32.251Z,16.33
2022-09-03T23:20:29.648Z,16.19
2022-09-03T23:25:42.015Z,15.96
2022-09-03T23:30:38.386Z,15.70
2022-09-03T23:35:50.983Z,15.35
2022-09-03T23:40:49.243Z,15.20
2022-09-03T23:46:12.404Z,15.11
2022-09-03T23:51:22.617Z,15.02
2022-09-03T23:56:31.352Z,14.95
